createdAt,value
2017-07-05T00:00:46.213Z,87.6
2017-07-05T00:01:53.699Z,87
2017-07-05T00:03:01.227Z,87.6
2017-07-05T00:04:08.371Z,87.6
2017-07-05T00:05:15.851Z,87
2017-07-05T00:06:22.961Z,87.9
2017-07-05T00:07:30.439Z,87.6
2017-07-05T00:08:37.919Z,87
2017-07-05T00:09:45.065Z,87.6
2017-07-05T00:10:52.219Z,88.6
2017-07-05T00:12:00.052Z,87.1
2017-07-05T00:13:07.195Z,87.5
2017-07-05T00:14:14.674Z,88.1
2017-07-05T00:15:22.159Z,88.6
2017-07-05T00:16:29.643Z,89
2017-07-05T00:17:37.142Z,88.8
2017-07-05T00:18:44.623Z,87.6
2017-07-05T00:19:52.103Z,88.5
2017-07-05T00:20:59.252Z,88.4
2017-07-05T00:22:06.068Z,88.7
2017-07-05T00:23:13.561Z,87.6
2017-07-05T00:24:21.039Z,88.7
2017-07-05T00:25:28.526Z,89.7
2017-07-05T00:26:35.666Z,90
2017-07-05T00:27:43.149Z,88.8
2017-07-05T00:28:50.934Z,88.8
2017-07-05T00:29:58.411Z,89.2
2017-07-05T00:31:05.552Z,89.1
2017-07-05T00:32:13.022Z,89.1
2017-07-05T00:33:20.507Z,88.3
2017-07-05T00:34:28.337Z,89.1
2017-07-05T00:35:35.818Z,88.3
2017-07-05T00:36:42.959Z,90
2017-07-05T00:37:50.435Z,89.3
2017-07-05T00:38:57.579Z,89.6
2017-07-05T00:40:05.415Z,90.3
2017-07-05T00:41:12.894Z,89.9
2017-07-05T00:42:20.373Z,90.1
2017-07-05T00:43:27.851Z,89.9
2017-07-05T00:44:35.330Z,90
2017-07-05T00:45:43.157Z,88.7
2017-07-05T00:48:12.361Z,87.4
2017-07-05T00:49:19.503Z,89.6
2017-07-05T00:50:26.656Z,89.5
2017-07-05T00:51:34.488Z,89.3
2017-07-05T00:52:41.968Z,88.4
2017-07-05T00:53:49.450Z,87.5
2017-07-05T00:54:56.593Z,90.1
2017-07-05T00:56:04.079Z,89.4
2017-07-05T00:57:11.860Z,90.6
2017-07-05T00:58:19.010Z,90.5
2017-07-05T00:59:26.486Z,90.9
2017-07-05T01:00:33.629Z,90.5
2017-07-05T01:01:40.805Z,90.5
2017-07-05T01:02:48.300Z,90.9
2017-07-05T01:03:55.775Z,90.9
2017-07-05T01:05:02.587Z,91.1
2017-07-05T01:06:09.744Z,91
2017-07-05T01:07:17.221Z,91.3
2017-07-05T01:08:24.717Z,91.2
2017-07-05T01:09:31.859Z,91
2017-07-05T01:10:39.009Z,91.1
2017-07-05T01:11:46.485Z,90.8
2017-07-05T01:12:53.966Z,90.6
2017-07-05T01:14:01.746Z,90.5
2017-07-05T01:15:09.224Z,91.1
2017-07-05T01:16:16.378Z,91.1
2017-07-05T01:17:23.856Z,90.9
2017-07-05T01:18:31.005Z,91.1
2017-07-05T01:19:38.838Z,90.9
2017-07-05T01:20:46.320Z,91.2
2017-07-05T01:21:53.795Z,91.3
2017-07-05T01:23:00.940Z,90.7
2017-07-05T01:24:08.417Z,90.4
2017-07-05T01:25:16.199Z,89.2
2017-07-05T01:26:23.339Z,90.5
2017-07-05T01:27:30.823Z,90.5
2017-07-05T01:28:38.305Z,89.8
2017-07-05T01:29:45.781Z,90.5
2017-07-05T01:30:52.945Z,89.8
2017-07-05T01:32:00.090Z,90.6
2017-07-05T01:33:07.234Z,90.4
2017-07-05T01:34:14.054Z,91.1
2017-07-05T01:35:21.537Z,90.9
2017-07-05T01:36:29.371Z,90.7
2017-07-05T01:37:36.522Z,90.8
2017-07-05T01:38:43.994Z,90.4
2017-07-05T01:39:51.141Z,90.4
2017-07-05T01:40:58.625Z,90
2017-07-05T01:42:05.787Z,90.2
2017-07-05T01:43:12.940Z,90.8
2017-07-05T01:44:20.419Z,90
2017-07-05T01:45:27.563Z,90.5
2017-07-05T01:46:35.046Z,91.3
2017-07-05T01:47:42.825Z,91.5
2017-07-05T01:48:50.299Z,91.3
2017-07-05T01:49:57.447Z,91.2
2017-07-05T01:51:04.925Z,91.9
2017-07-05T01:52:12.408Z,92
2017-07-05T01:53:19.860Z,91.2
2017-07-05T01:54:27.335Z,91.8
2017-07-05T01:55:34.485Z,92
2017-07-05T01:56:41.961Z,91.9
2017-07-05T01:57:49.436Z,91.8
2017-07-05T01:58:57.215Z,91.6
2017-07-05T02:00:04.365Z,92.1
2017-07-05T02:01:11.844Z,91.2
2017-07-05T02:02:18.980Z,92
2017-07-05T02:03:26.457Z,92.4
2017-07-05T02:04:34.240Z,92.2
2017-07-05T02:05:41.381Z,92.2
2017-07-05T02:06:48.859Z,91.4
2017-07-05T02:07:56.336Z,92.1
2017-07-05T02:09:03.813Z,91.9
2017-07-05T02:10:11.259Z,91.8
2017-07-05T02:11:18.738Z,92.1
2017-07-05T02:12:25.880Z,91.9
2017-07-05T02:13:33.359Z,91.9
2017-07-05T02:14:40.834Z,91.4
2017-07-05T02:15:48.275Z,91.2
2017-07-05T02:16:55.759Z,91.1
2017-07-05T02:18:03.271Z,91.5
2017-07-05T02:19:10.740Z,91.1
2017-07-05T02:20:17.883Z,91.5
2017-07-05T02:21:25.663Z,91.3
2017-07-05T02:22:33.138Z,91.5
2017-07-05T02:23:40.284Z,91.6
2017-07-05T02:24:47.097Z,91.5
2017-07-05T02:25:54.622Z,91.8
2017-07-05T02:27:02.405Z,91.2
2017-07-05T02:28:09.555Z,91.4
2017-07-05T02:29:16.705Z,91.2
2017-07-05T02:30:23.855Z,91.1
2017-07-05T02:31:30.996Z,91.8
2017-07-05T02:32:38.442Z,91.3
2017-07-05T02:33:45.921Z,91.5
2017-07-05T02:34:53.403Z,91.6
2017-07-05T02:35:59.889Z,91.5
2017-07-05T02:37:07.370Z,91.7
2017-07-05T02:38:14.484Z,92.5
2017-07-05T02:39:21.303Z,92
2017-07-05T02:40:28.456Z,92.3
2017-07-05T02:41:35.951Z,92.5
2017-07-05T02:42:43.094Z,91.2
2017-07-05T02:43:50.869Z,91.4
2017-07-05T02:44:57.678Z,91.3
2017-07-05T02:46:04.822Z,91.5
2017-07-05T02:47:11.964Z,91.3
2017-07-05T02:48:19.160Z,90.7
2017-07-05T02:49:26.936Z,91.4
2017-07-05T02:50:34.418Z,91
2017-07-05T02:51:41.564Z,91.8
2017-07-05T02:52:49.041Z,92
2017-07-05T02:53:56.521Z,91.5
2017-07-05T02:55:04.297Z,92.3
2017-07-05T02:56:11.774Z,92
2017-07-05T02:57:18.921Z,91.4
2017-07-05T02:59:47.795Z,92
2017-07-05T03:00:54.903Z,91.7
2017-07-05T03:02:02.382Z,92.4
2017-07-05T03:03:09.856Z,92.1
2017-07-05T03:04:17.335Z,91.5
2017-07-05T03:05:24.809Z,91.4
2017-07-05T03:06:32.587Z,91.2
2017-07-05T03:07:39.734Z,90.5
2017-07-05T03:08:47.213Z,92
2017-07-05T03:09:54.693Z,91.4
2017-07-05T03:11:02.175Z,91.4
2017-07-05T03:12:09.615Z,91.5
2017-07-05T03:13:16.760Z,90.7
2017-07-05T03:14:24.240Z,90.6
2017-07-05T03:15:31.712Z,91.3
2017-07-05T03:16:39.194Z,91.3
2017-07-05T03:17:46.974Z,92
2017-07-05T03:18:54.461Z,91.9
2017-07-05T03:20:01.939Z,91.5
2017-07-05T03:21:09.414Z,91.6
2017-07-05T03:22:16.900Z,91.9
2017-07-05T03:24:31.125Z,91
2017-07-05T03:25:38.604Z,91.9
2017-07-05T03:26:46.085Z,91.5
2017-07-05T03:27:53.568Z,91.8
2017-07-05T03:29:01.015Z,90.9
2017-07-05T03:30:08.501Z,91.7
2017-07-05T03:31:15.983Z,92.1
2017-07-05T03:32:23.460Z,92
2017-07-05T03:33:30.600Z,91.8
2017-07-05T03:34:38.079Z,91.7
2017-07-05T03:35:45.555Z,92.3
2017-07-05T03:36:53.038Z,92.9
2017-07-05T03:38:00.522Z,92.5
2017-07-05T03:39:07.665Z,92.3
2017-07-05T03:40:15.440Z,92.1
2017-07-05T03:41:22.589Z,91.8
2017-07-05T03:42:30.073Z,92.3
2017-07-05T03:43:37.565Z,92.7
2017-07-05T03:44:45.080Z,92.9
2017-07-05T03:45:52.860Z,91.6
2017-07-05T03:47:00.340Z,92.1
2017-07-05T03:48:07.506Z,92.1
2017-07-05T03:49:14.980Z,92.1
2017-07-05T03:50:22.494Z,93.3
2017-07-05T03:51:30.001Z,92.9
2017-07-05T03:52:37.484Z,93.1
2017-07-05T03:53:44.965Z,94
2017-07-05T03:54:52.442Z,93.5
2017-07-05T03:55:58.921Z,93.9
2017-07-05T03:57:06.364Z,93.9
2017-07-05T03:58:13.516Z,93.7
2017-07-05T03:59:20.325Z,93.6
2017-07-05T04:00:27.801Z,93.5
2017-07-05T04:01:34.941Z,93.8
2017-07-05T04:02:42.721Z,93.8
2017-07-05T04:03:49.870Z,93.6
2017-07-05T04:04:57.034Z,93.5
2017-07-05T04:06:04.181Z,93.6
2017-07-05T04:07:11.327Z,93
2017-07-05T04:08:19.161Z,92.9
2017-07-05T04:09:26.641Z,92.7
2017-07-05T04:10:34.121Z,92.8
2017-07-05T04:11:41.599Z,92.5
2017-07-05T04:12:49.080Z,93.3
2017-07-05T04:13:56.902Z,92.8
2017-07-05T04:15:04.054Z,93.6
2017-07-05T04:16:11.533Z,92.4
2017-07-05T04:17:19.013Z,93.2
2017-07-05T04:18:26.497Z,92.1
2017-07-05T04:19:34.270Z,92.4
2017-07-05T04:20:41.749Z,92.9
2017-07-05T04:21:48.901Z,92.5
2017-07-05T04:22:56.382Z,92.5
2017-07-05T04:24:03.859Z,93.3
2017-07-05T04:25:11.643Z,93.3
2017-07-05T04:26:18.464Z,92.9
2017-07-05T04:27:25.949Z,92.5
2017-07-05T04:28:33.449Z,92.6
2017-07-05T04:29:40.927Z,92.6
2017-07-05T04:30:48.755Z,92.7
2017-07-05T04:31:56.231Z,92.5
2017-07-05T04:33:03.751Z,92.5
2017-07-05T04:34:11.222Z,92.8
2017-07-05T04:35:18.701Z,92.4
2017-07-05T04:36:26.528Z,92.7
2017-07-05T04:37:34.008Z,92.8
2017-07-05T04:38:41.488Z,92.4
2017-07-05T04:39:48.971Z,92.5
2017-07-05T04:40:56.444Z,92.6
2017-07-05T04:42:04.221Z,92.4
2017-07-05T04:43:11.702Z,92.7
2017-07-05T04:44:19.180Z,92.4
2017-07-05T04:45:25.990Z,92.4
2017-07-05T04:46:33.471Z,92.5
2017-07-05T04:47:41.301Z,92.6
2017-07-05T04:48:48.786Z,92.6
2017-07-05T04:49:56.272Z,92.8
2017-07-05T04:51:03.747Z,92.9
2017-07-05T04:52:11.225Z,93
2017-07-05T04:53:18.717Z,93
2017-07-05T04:54:25.861Z,93.1
2017-07-05T04:55:33.334Z,93.2
2017-07-05T04:56:40.491Z,93
2017-07-05T04:57:47.306Z,93.3
2017-07-05T04:58:55.134Z,93.1
2017-07-05T05:00:02.631Z,93
2017-07-05T05:01:09.780Z,92.9
2017-07-05T05:02:16.932Z,92.9
2017-07-05T05:03:24.090Z,93
2017-07-05T05:04:31.923Z,92.9
2017-07-05T05:05:39.406Z,92.9
2017-07-05T05:06:46.886Z,92.7
2017-07-05T05:07:54.361Z,92.8
2017-07-05T05:09:01.506Z,92.7
2017-07-05T05:10:09.336Z,92.5
2017-07-05T05:11:16.485Z,92.5
2017-07-05T05:12:23.966Z,92.2
2017-07-05T05:13:31.125Z,92.4
2017-07-05T05:14:38.598Z,92.2
2017-07-05T05:15:46.099Z,92.3
2017-07-05T05:16:52.912Z,92
2017-07-05T05:18:00.061Z,91.9
2017-07-05T05:19:07.210Z,92
2017-07-05T05:20:14.688Z,91.8
2017-07-05T05:21:22.183Z,91.9
2017-07-05T05:22:29.657Z,91.7
2017-07-05T05:23:37.066Z,91.9
2017-07-05T05:24:44.543Z,92.1
2017-07-05T05:25:52.019Z,92.1
2017-07-05T05:26:59.850Z,91.8
2017-07-05T05:28:07.328Z,91.4
2017-07-05T05:29:14.803Z,91.3
2017-07-05T05:30:22.315Z,90.8
2017-07-05T05:31:29.802Z,90.8
2017-07-05T05:32:37.634Z,91
2017-07-05T05:33:45.116Z,90.8
2017-07-05T05:34:52.261Z,90.9
2017-07-05T05:35:59.738Z,90.6
2017-07-05T05:37:06.892Z,90.3
2017-07-05T05:38:14.665Z,90.2
2017-07-05T05:39:22.147Z,89.7
2017-07-05T05:40:29.630Z,89.8
2017-07-05T05:41:37.106Z,90
2017-07-05T05:42:44.581Z,90.3
2017-07-05T05:43:52.410Z,90
2017-07-05T05:44:59.899Z,90
2017-07-05T05:46:07.374Z,89.1
2017-07-05T05:47:14.856Z,90
2017-07-05T05:48:21.671Z,89
2017-07-05T05:49:29.460Z,89.7
2017-07-05T05:50:36.943Z,90.2
2017-07-05T05:51:44.090Z,86.3
2017-07-05T05:52:51.239Z,87.8
2017-07-05T05:53:58.715Z,85
2017-07-05T05:55:06.492Z,85.1
2017-07-05T05:56:13.972Z,83.8
2017-07-05T05:57:21.452Z,83.9
2017-07-05T05:58:28.950Z,83.3
2017-07-05T05:59:36.432Z,82.9
2017-07-05T06:00:44.264Z,81.1
2017-07-05T06:01:51.752Z,82
2017-07-05T06:02:59.242Z,80.9
2017-07-05T06:04:06.389Z,81.3
2017-07-05T06:05:13.194Z,81.5
2017-07-05T06:06:20.359Z,82.6
2017-07-05T06:07:27.837Z,82.6
2017-07-05T06:08:35.318Z,83.2
2017-07-05T06:09:42.799Z,82.3
2017-07-05T06:10:50.284Z,82.2
2017-07-05T06:11:58.111Z,82.7
2017-07-05T06:13:05.260Z,81.6
2017-07-05T06:14:12.744Z,82.7
2017-07-05T06:15:20.234Z,79.1
2017-07-05T06:16:27.285Z,78.5
2017-07-05T06:17:35.120Z,78.4
2017-07-05T06:18:42.606Z,76
2017-07-05T06:19:50.097Z,77.9
2017-07-05T06:20:57.247Z,77.1
2017-07-05T06:22:04.732Z,77.3
2017-07-05T06:23:13.447Z,77.8
2017-07-05T06:24:20.275Z,75
2017-07-05T06:25:27.441Z,76.5
2017-07-05T06:26:34.925Z,76.3
2017-07-05T06:27:42.412Z,75.2
2017-07-05T06:28:50.192Z,76.6
2017-07-05T06:29:57.337Z,74.1
2017-07-05T06:31:04.831Z,76.3
2017-07-05T06:32:11.982Z,76.2
2017-07-05T06:33:19.139Z,76.2
2017-07-05T06:34:26.968Z,72.8
2017-07-05T06:35:34.450Z,75.2
2017-07-05T06:36:41.933Z,72.3
2017-07-05T06:37:49.415Z,73
2017-07-05T06:38:56.589Z,72.4
2017-07-05T06:40:04.428Z,73
2017-07-05T06:41:11.566Z,70.8
2017-07-05T06:42:19.059Z,69.7
2017-07-05T06:43:26.546Z,72.2
2017-07-05T06:44:34.036Z,71.7
2017-07-05T06:45:41.875Z,69
2017-07-05T06:46:49.361Z,69.2
2017-07-05T06:47:56.843Z,69.4
2017-07-05T06:49:04.341Z,68
2017-07-05T06:50:11.488Z,69.9
2017-07-05T06:51:18.651Z,69.3
2017-07-05T06:52:26.134Z,68.2
2017-07-05T06:53:33.618Z,67.6
2017-07-05T06:54:41.105Z,69.4
2017-07-05T06:55:48.586Z,67.6
2017-07-05T06:56:55.704Z,68.2
2017-07-05T06:58:03.426Z,69.2
2017-07-05T06:59:10.565Z,68.5
2017-07-05T07:00:18.062Z,70.3
2017-07-05T07:01:25.213Z,69.9
2017-07-05T07:02:32.381Z,65.5
2017-07-05T07:03:39.865Z,64.2
2017-07-05T07:04:47.352Z,65
2017-07-05T07:05:54.840Z,64
2017-07-05T07:07:02.040Z,63.6
2017-07-05T07:08:09.900Z,66.9
2017-07-05T07:09:17.383Z,64.2
2017-07-05T07:10:24.863Z,65.1
2017-07-05T07:11:32.010Z,62.6
2017-07-05T07:12:39.162Z,67.4
2017-07-05T07:13:46.670Z,63
2017-07-05T07:14:53.832Z,62.7
2017-07-05T07:16:00.663Z,61.4
2017-07-05T07:17:08.147Z,65.4
2017-07-05T07:18:14.961Z,62.6
2017-07-05T07:19:22.746Z,62.8
2017-07-05T07:20:30.232Z,63
2017-07-05T07:21:37.720Z,62.8
2017-07-05T07:22:44.875Z,61.5
2017-07-05T07:23:52.363Z,64.3
2017-07-05T07:25:00.195Z,62.8
2017-07-05T07:26:07.683Z,63.7
2017-07-05T07:27:14.518Z,64.7
2017-07-05T07:28:21.996Z,65
2017-07-05T07:29:29.479Z,65.6
2017-07-05T07:30:36.600Z,64.5
2017-07-05T07:31:43.775Z,66.6
2017-07-05T07:32:50.587Z,62.1
2017-07-05T07:33:57.416Z,63.7
2017-07-05T07:35:04.903Z,61.1
2017-07-05T07:36:12.748Z,64
2017-07-05T07:37:20.227Z,61.8
2017-07-05T07:38:27.393Z,62.1
2017-07-05T07:39:34.875Z,61.3
2017-07-05T07:40:41.710Z,60.6
2017-07-05T07:41:49.159Z,62.4
2017-07-05T07:42:56.310Z,61.1
2017-07-05T07:44:03.455Z,60.9
2017-07-05T07:45:10.947Z,61
2017-07-05T07:46:18.096Z,59
2017-07-05T07:47:25.936Z,60.9
2017-07-05T07:48:33.107Z,59
2017-07-05T07:49:40.267Z,59
2017-07-05T07:50:47.767Z,58.7
2017-07-05T07:51:54.927Z,62.3
2017-07-05T07:53:02.046Z,63.1
2017-07-05T07:54:09.539Z,60
2017-07-05T07:55:17.028Z,63
2017-07-05T07:56:24.186Z,58.7
2017-07-05T07:57:31.347Z,60.1
2017-07-05T07:58:38.849Z,57.4
2017-07-05T07:59:46.343Z,57.5
2017-07-05T08:00:53.842Z,58.4
2017-07-05T08:02:00.985Z,58
2017-07-05T08:03:08.134Z,59.1
2017-07-05T08:04:15.589Z,58.3
2017-07-05T08:05:22.757Z,57.8
2017-07-05T08:06:29.901Z,57
2017-07-05T08:07:36.754Z,58.5
2017-07-05T08:08:44.238Z,59.6
2017-07-05T08:09:52.079Z,58.7
2017-07-05T08:10:59.571Z,58.1
2017-07-05T08:13:14.175Z,54.6
2017-07-05T08:14:20.995Z,54
2017-07-05T08:15:28.834Z,54.5
2017-07-05T08:16:36.326Z,54.3
2017-07-05T08:17:43.814Z,57.8
2017-07-05T08:18:51.303Z,58.6
2017-07-05T08:19:58.797Z,57.4
2017-07-05T08:21:06.599Z,56.7
2017-07-05T08:22:13.415Z,57.8
2017-07-05T08:23:20.584Z,53.8
2017-07-05T08:24:28.065Z,56.5
2017-07-05T08:25:35.550Z,54
2017-07-05T08:26:43.402Z,53.4
2017-07-05T08:27:50.895Z,56.7
2017-07-05T08:28:58.054Z,51.6
2017-07-05T08:30:05.543Z,53.5
2017-07-05T08:31:13.028Z,54.7
2017-07-05T08:32:20.816Z,55.8
2017-07-05T08:33:28.304Z,54.5
2017-07-05T08:34:35.797Z,55.9
2017-07-05T08:35:42.962Z,54.7
2017-07-05T08:36:50.455Z,53.8
2017-07-05T08:37:58.248Z,52.5
2017-07-05T08:39:05.736Z,54.1
2017-07-05T08:40:13.221Z,53.4
2017-07-05T08:41:20.718Z,55.3
2017-07-05T08:42:27.879Z,51.4
2017-07-05T08:43:35.664Z,51.9
2017-07-05T08:44:43.153Z,52.9
2017-07-05T08:45:50.328Z,54.2
2017-07-05T08:46:57.815Z,55
2017-07-05T08:48:05.305Z,51.8
2017-07-05T08:49:13.189Z,52.5
2017-07-05T08:50:20.680Z,53
2017-07-05T08:51:28.173Z,54.4
2017-07-05T08:52:35.655Z,52.4
2017-07-05T08:53:43.141Z,52.2
2017-07-05T08:54:50.986Z,51.2
2017-07-05T08:55:57.486Z,51.4
2017-07-05T08:57:04.984Z,51.4
2017-07-05T08:58:12.473Z,51.2
2017-07-05T08:59:19.967Z,52.7
2017-07-05T09:00:27.473Z,52.6
2017-07-05T09:01:35.195Z,51.2
2017-07-05T09:02:42.582Z,53.3
2017-07-05T09:03:50.071Z,50.4
2017-07-05T09:04:57.237Z,53.5
2017-07-05T09:06:05.076Z,53.4
2017-07-05T09:07:12.578Z,52.9
2017-07-05T09:08:20.071Z,52.4
2017-07-05T09:09:27.234Z,52.3
2017-07-05T09:10:34.396Z,52.9
2017-07-05T09:11:41.202Z,52.1
2017-07-05T09:12:48.700Z,49.9
2017-07-05T09:13:56.188Z,50.6
2017-07-05T09:15:03.020Z,51.1
2017-07-05T09:16:10.182Z,49.8
2017-07-05T09:17:17.974Z,50.3
2017-07-05T09:18:25.516Z,51.8
2017-07-05T09:19:32.679Z,48.5
2017-07-05T09:20:40.178Z,47.8
2017-07-05T09:21:47.661Z,50.1
2017-07-05T09:22:55.504Z,51.6
2017-07-05T09:24:02.660Z,49.8
2017-07-05T09:25:09.813Z,46.2
2017-07-05T09:26:16.969Z,48.9
2017-07-05T09:27:24.458Z,49.3
2017-07-05T09:28:32.294Z,50
2017-07-05T09:29:39.115Z,46.1
2017-07-05T09:30:46.614Z,47.2
2017-07-05T09:31:54.098Z,49.1
2017-07-05T09:33:01.595Z,48.1
2017-07-05T09:34:09.477Z,47.6
2017-07-05T09:35:16.307Z,46.2
2017-07-05T09:36:23.798Z,45.1
2017-07-05T09:37:30.954Z,47.4
2017-07-05T09:38:38.450Z,45.1
2017-07-05T09:39:45.955Z,43.9
2017-07-05T09:40:53.448Z,46.4
2017-07-05T09:42:00.941Z,45.2
2017-07-05T09:43:08.428Z,45.4
2017-07-05T09:44:15.585Z,45.4
2017-07-05T09:45:23.107Z,46.6
2017-07-05T09:46:29.933Z,48.2
2017-07-05T09:47:37.435Z,48.8
2017-07-05T09:48:44.590Z,47
2017-07-05T09:49:51.750Z,45.8
2017-07-05T09:50:59.541Z,45.9
2017-07-05T09:52:07.034Z,46.9
2017-07-05T09:53:14.519Z,48.1
2017-07-05T09:54:22.009Z,47.4
2017-07-05T09:55:29.191Z,45.7
2017-07-05T09:56:37.037Z,48.8
2017-07-05T09:57:44.257Z,46.6
2017-07-05T09:58:51.744Z,47.3
2017-07-05T09:59:59.243Z,46.9
2017-07-05T10:01:06.406Z,49
2017-07-05T10:02:14.246Z,47.2
2017-07-05T10:03:21.403Z,47.4
2017-07-05T10:04:28.562Z,47
2017-07-05T10:05:36.049Z,45.4
2017-07-05T10:06:42.886Z,48.2
2017-07-05T10:07:50.394Z,49.5
2017-07-05T10:08:57.887Z,47.6
2017-07-05T10:10:05.039Z,48.1
2017-07-05T10:11:12.534Z,49.5
2017-07-05T10:12:20.031Z,48.7
2017-07-05T10:13:27.866Z,47.7
2017-07-05T10:14:35.021Z,47.6
2017-07-05T10:15:42.184Z,46.1
2017-07-05T10:16:49.688Z,47.6
2017-07-05T10:17:57.185Z,48.1
2017-07-05T10:19:04.650Z,48.3
2017-07-05T10:20:12.148Z,49.2
2017-07-05T10:21:19.702Z,47
2017-07-05T10:22:27.196Z,44.1
2017-07-05T10:23:34.688Z,45.5
2017-07-05T10:24:42.493Z,48.3
2017-07-05T10:25:49.987Z,45.4
2017-07-05T10:26:57.482Z,45.9
2017-07-05T10:28:04.976Z,46.5
2017-07-05T10:29:12.141Z,46.4
2017-07-05T10:30:19.929Z,45.3
2017-07-05T10:31:27.420Z,46.7
2017-07-05T10:32:34.938Z,45.6
2017-07-05T10:33:42.432Z,46.1
2017-07-05T10:34:49.925Z,47.6
2017-07-05T10:35:57.769Z,46.3
2017-07-05T10:37:05.265Z,43.4
2017-07-05T10:38:12.760Z,48
2017-07-05T10:39:20.246Z,44.5
2017-07-05T10:40:27.743Z,45.2
2017-07-05T10:41:35.258Z,45.1
2017-07-05T10:42:42.414Z,48.7
2017-07-05T10:43:49.904Z,48
2017-07-05T10:44:57.391Z,45.7
2017-07-05T10:46:04.552Z,48.5
2017-07-05T10:47:11.799Z,46.5
2017-07-05T10:48:18.957Z,43.4
2017-07-05T10:49:26.118Z,46.7
2017-07-05T10:50:33.279Z,44
2017-07-05T10:51:40.101Z,44.5
2017-07-05T10:52:47.892Z,46
2017-07-05T10:53:55.385Z,47
2017-07-05T10:55:02.540Z,43.9
2017-07-05T10:56:09.704Z,42.7
2017-07-05T10:57:17.200Z,43.9
2017-07-05T10:58:24.661Z,44.3
2017-07-05T10:59:31.838Z,41.4
2017-07-05T11:00:39.328Z,41.7
2017-07-05T11:01:46.830Z,42.8
2017-07-05T11:02:54.317Z,41.8
2017-07-05T11:04:02.162Z,42.5
2017-07-05T11:05:08.671Z,44.6
2017-07-05T11:06:15.839Z,44.3
2017-07-05T11:07:23.329Z,43.6
2017-07-05T11:08:30.817Z,41.7
2017-07-05T11:09:38.616Z,44.1
2017-07-05T11:10:46.106Z,40.5
2017-07-05T11:11:53.602Z,41.2
2017-07-05T11:13:01.093Z,42.3
2017-07-05T11:14:08.602Z,41.2
2017-07-05T11:15:15.787Z,41.4
2017-07-05T11:16:22.946Z,42.4
2017-07-05T11:17:30.102Z,42.4
2017-07-05T11:18:37.595Z,40.1
2017-07-05T11:19:44.758Z,40.8
2017-07-05T11:20:52.219Z,41.7
2017-07-05T11:21:59.383Z,41.3
2017-07-05T11:23:06.882Z,42.8
2017-07-05T11:24:14.044Z,42.4
2017-07-05T11:25:21.535Z,41.9
2017-07-05T11:26:29.043Z,41.6
2017-07-05T11:27:36.205Z,42.7
2017-07-05T11:28:43.702Z,42.8
2017-07-05T11:29:50.866Z,42.2
2017-07-05T11:30:58.363Z,42.6
2017-07-05T11:32:06.203Z,41.6
2017-07-05T11:33:13.031Z,39.1
2017-07-05T11:34:19.858Z,41
2017-07-05T11:35:27.013Z,40.2
2017-07-05T11:36:34.506Z,40.5
